Time;durP1;ratioP1;P1;durP2;ratioP2;P2;SDS_P1;SDS_P2;PMS_P1;PMS_P2;Temp;Humidity;BMP_temperature;BMP_pressure;BME280_temperature;BME280_humidity;BME280_pressure;Samples;Min_cycle;Max_cycle;Signal;HPM_P1;HPM_P2
2022/04/18 00:02:05;;;;;;;;;;;5.40;99.90;;;;;;5102948;28;20007;-60
2022/04/18 00:04:33;;;;;;;;;;;5.50;99.90;;;;;;5093636;28;20293;-60
2022/04/18 00:06:59;;;;;;;;;;;5.40;99.90;;;;;;5093775;28;19990;-60
2022/04/18 00:09:24;;;;;;;;;;;5.40;99.90;;;;;;5092526;28;19980;-60
2022/04/18 00:11:50;;;;;;;;;;;5.40;99.90;;;;;;5090974;28;19924;-60
2022/04/18 00:14:16;;;;;;;;;;;5.30;99.90;;;;;;5113202;28;20010;-60
2022/04/18 00:16:41;;;;;;;;;;;5.30;99.90;;;;;;5099099;28;19924;-60
2022/04/18 00:19:07;;;;;;;;;;;5.30;99.90;;;;;;5074146;28;19928;-61
2022/04/18 00:21:32;;;;;;;;;;;5.30;99.90;;;;;;5074317;28;19924;-60
2022/04/18 00:23:58;;;;;;;;;;;5.20;99.90;;;;;;5072156;28;19931;-60
2022/04/18 00:26:24;;;;;;;;;;;5.20;99.90;;;;;;5075117;28;19920;-60
2022/04/18 00:28:49;;;;;;;;;;;5.10;99.90;;;;;;5102981;28;19924;-60
2022/04/18 00:31:15;;;;;;;;;;;5.10;99.90;;;;;;5094525;28;20290;-60
2022/04/18 00:33:41;;;;;;;;;;;5.10;99.90;;;;;;5095153;28;19941;-60
2022/04/18 00:36:07;;;;;;;;;;;5.00;99.90;;;;;;5112874;28;19969;-60
2022/04/18 00:38:32;;;;;;;;;;;5.00;99.90;;;;;;5075417;28;19969;-60
2022/04/18 00:40:58;;;;;;;;;;;5.00;99.90;;;;;;5093069;28;19932;-60
2022/04/18 00:43:43;;;;;;;;;;;5.00;99.90;;;;;;5074597;28;19931;-60
2022/04/18 00:46:09;;;;;;;;;;;5.00;99.90;;;;;;5081148;28;19924;-60
2022/04/18 00:48:35;;;;;;;;;;;4.90;99.90;;;;;;5113714;28;19971;-60
2022/04/18 00:51:01;;;;;;;;;;;4.90;99.90;;;;;;5112889;28;20390;-60
2022/04/18 00:53:27;;;;;;;;;;;4.90;99.90;;;;;;5113107;28;19931;-60
2022/04/18 00:55:53;;;;;;;;;;;4.90;99.90;;;;;;5097070;28;19924;-60
2022/04/18 00:58:19;;;;;;;;;;;4.90;99.90;;;;;;5092188;28;19924;-60
2022/04/18 01:00:44;;;;;;;;;;;4.90;99.90;;;;;;5074360;28;19924;-60
2022/04/18 01:03:11;;;;;;;;;;;4.90;99.90;;;;;;5076526;28;19930;-60
2022/04/18 01:05:37;;;;;;;;;;;4.80;99.90;;;;;;5112740;28;20014;-60
2022/04/18 01:08:04;;;;;;;;;;;4.80;99.90;;;;;;5112232;28;20018;-60
2022/04/18 01:10:30;;;;;;;;;;;4.80;99.90;;;;;;5090843;28;20024;-60
2022/04/18 01:12:56;;;;;;;;;;;4.70;99.90;;;;;;5094259;28;19930;-59
2022/04/18 01:15:38;;;;;;;;;;;4.70;99.90;;;;;;5085953;28;20453;-60
2022/04/18 01:18:10;;;;;;;;;;;4.60;99.90;;;;;;5071047;28;19924;-60
2022/04/18 01:20:57;;;;;;;;;;;4.50;99.90;;;;;;5075791;28;21104;-60
2022/04/18 01:23:30;;;;;;;;;;;4.50;99.90;;;;;;5077606;28;19931;-60
2022/04/18 01:28:58;;;;;;;;;;;4.40;99.90;;;;;;5091694;28;19972;-60
2022/04/18 01:31:26;;;;;;;;;;;4.30;99.90;;;;;;5073768;28;19924;-60
2022/04/18 01:33:52;;;;;;;;;;;4.30;99.90;;;;;;5073695;28;19973;-60
2022/04/18 01:36:17;;;;;;;;;;;4.30;99.90;;;;;;5092618;28;19928;-60
2022/04/18 01:38:43;;;;;;;;;;;4.20;99.90;;;;;;5076520;28;20144;-60
2022/04/18 01:41:09;;;;;;;;;;;4.20;99.90;;;;;;5094692;28;20066;-60
2022/04/18 01:43:35;;;;;;;;;;;4.20;99.90;;;;;;5116903;28;19931;-60
2022/04/18 01:46:00;;;;;;;;;;;4.20;99.90;;;;;;5097540;28;19930;-60
2022/04/18 01:48:28;;;;;;;;;;;4.20;99.90;;;;;;5069909;28;20015;-60
2022/04/18 01:50:53;;;;;;;;;;;4.10;99.90;;;;;;5077868;28;20099;-60
2022/04/18 01:53:20;;;;;;;;;;;4.10;99.90;;;;;;5076624;28;19925;-60
2022/04/18 01:55:46;;;;;;;;;;;4.10;99.90;;;;;;5077512;28;20436;-60
2022/04/18 01:58:13;;;;;;;;;;;4.20;99.90;;;;;;5095615;28;19927;-59
2022/04/18 02:00:38;;;;;;;;;;;4.10;99.90;;;;;;5097050;28;20297;-60
2022/04/18 02:03:04;;;;;;;;;;;4.10;99.90;;;;;;5097808;28;19930;-60
2022/04/18 02:05:30;;;;;;;;;;;4.00;99.90;;;;;;5115691;28;19976;-60
2022/04/18 02:07:55;;;;;;;;;;;4.00;99.90;;;;;;5096875;28;19924;-59
2022/04/18 02:10:21;;;;;;;;;;;4.00;99.90;;;;;;5095511;28;19928;-60
2022/04/18 02:12:47;;;;;;;;;;;4.00;99.90;;;;;;5095676;28;20366;-59
2022/04/18 02:15:15;;;;;;;;;;;3.90;99.90;;;;;;5093848;28;19984;-59
2022/04/18 02:17:50;;;;;;;;;;;3.90;99.90;;;;;;5095367;28;20014;-60
2022/04/18 02:20:15;;;;;;;;;;;3.90;99.90;;;;;;5077339;28;19982;-60
2022/04/18 02:22:41;;;;;;;;;;;3.90;99.90;;;;;;5073869;28;20007;-60
2022/04/18 02:25:07;;;;;;;;;;;3.90;99.90;;;;;;5097618;28;20454;-59
2022/04/18 02:27:33;;;;;;;;;;;3.90;99.90;;;;;;5097520;28;19966;-59
2022/04/18 02:30:01;;;;;;;;;;;3.90;99.90;;;;;;5079719;28;19924;-59
2022/04/18 02:35:11;;;;;;;;;;;3.90;99.90;;;;;;5114972;28;19924;-59
2022/04/18 02:37:37;;;;;;;;;;;3.80;99.90;;;;;;5096452;28;20421;-59
2022/04/18 02:40:05;;;;;;;;;;;3.80;99.90;;;;;;5097566;28;19971;-59
2022/04/18 02:42:31;;;;;;;;;;;3.80;99.90;;;;;;5077486;28;19924;-59
2022/04/18 02:44:57;;;;;;;;;;;3.80;99.90;;;;;;5094304;28;19955;-60
2022/04/18 02:47:42;;;;;;;;;;;3.80;99.90;;;;;;5094683;28;20386;-59
2022/04/18 02:50:08;;;;;;;;;;;3.70;99.90;;;;;;5084121;28;20056;-60
2022/04/18 02:52:34;;;;;;;;;;;3.70;99.90;;;;;;5096323;28;19924;-59
2022/04/18 02:55:00;;;;;;;;;;;3.70;99.90;;;;;;5097240;28;19993;-60
2022/04/18 02:57:26;;;;;;;;;;;3.70;99.90;;;;;;5114310;28;19923;-60
2022/04/18 02:59:52;;;;;;;;;;;3.70;99.90;;;;;;5078880;28;19931;-59
2022/04/18 03:02:18;;;;;;;;;;;3.60;99.90;;;;;;5096894;28;19924;-60
2022/04/18 03:04:44;;;;;;;;;;;3.60;99.90;;;;;;5095922;28;19920;-59
2022/04/18 03:07:10;;;;;;;;;;;3.60;99.90;;;;;;5078757;28;19923;-60
2022/04/18 03:09:35;;;;;;;;;;;3.50;99.90;;;;;;5101413;28;19932;-59
2022/04/18 03:12:02;;;;;;;;;;;3.30;99.90;;;;;;5075352;28;19928;-60
2022/04/18 03:14:29;;;;;;;;;;;3.10;99.90;;;;;;5094135;28;19928;-59
2022/04/18 03:16:58;;;;;;;;;;;3.00;99.90;;;;;;5089894;28;19932;-59
2022/04/18 03:19:25;;;;;;;;;;;2.80;99.90;;;;;;5096207;28;19928;-59
2022/04/18 03:21:55;;;;;;;;;;;2.70;99.90;;;;;;5092667;28;19981;-59
2022/04/18 03:24:20;;;;;;;;;;;2.60;99.90;;;;;;5058708;28;19924;-59
2022/04/18 03:26:54;;;;;;;;;;;2.50;99.90;;;;;;5095675;28;19930;-59
2022/04/18 03:29:26;;;;;;;;;;;2.40;99.90;;;;;;5114080;28;20472;-59
2022/04/18 03:31:53;;;;;;;;;;;2.30;99.90;;;;;;5095759;28;20022;-60
2022/04/18 03:34:26;;;;;;;;;;;2.30;99.90;;;;;;5095486;28;19927;-59
2022/04/18 03:39:52;;;;;;;;;;;2.40;99.90;;;;;;5095420;28;20374;-59
2022/04/18 03:42:28;;;;;;;;;;;2.50;99.90;;;;;;5078676;28;20290;-60
2022/04/18 03:44:55;;;;;;;;;;;2.50;99.90;;;;;;5095679;28;20393;-60
2022/04/18 03:47:20;;;;;;;;;;;2.50;99.90;;;;;;5095358;28;19924;-59
2022/04/18 03:49:46;;;;;;;;;;;2.60;99.90;;;;;;5096236;28;19928;-59
2022/04/18 03:52:12;;;;;;;;;;;2.70;99.90;;;;;;5084791;28;19983;-60
2022/04/18 03:54:40;;;;;;;;;;;2.70;99.90;;;;;;5058682;28;19931;-59
2022/04/18 03:57:07;;;;;;;;;;;2.70;99.90;;;;;;5075771;28;19924;-60
2022/04/18 03:59:43;;;;;;;;;;;2.70;99.90;;;;;;5058115;28;20473;-59
2022/04/18 04:02:09;;;;;;;;;;;2.60;99.90;;;;;;5092746;28;19924;-60
2022/04/18 04:04:41;;;;;;;;;;;2.60;99.90;;;;;;5074658;28;20382;-59
2022/04/18 04:07:08;;;;;;;;;;;2.50;99.90;;;;;;5074927;28;20219;-59
2022/04/18 04:09:34;;;;;;;;;;;2.50;99.90;;;;;;5074799;28;20005;-59
2022/04/18 04:12:00;;;;;;;;;;;2.40;99.90;;;;;;5058495;28;19931;-59
2022/04/18 04:14:32;;;;;;;;;;;2.30;99.90;;;;;;5057519;28;20472;-59
2022/04/18 04:16:58;;;;;;;;;;;2.20;99.90;;;;;;5059024;28;19929;-60
2022/04/18 04:19:24;;;;;;;;;;;2.30;99.90;;;;;;5086848;28;19931;-59
2022/04/18 04:21:51;;;;;;;;;;;2.30;99.90;;;;;;5071530;28;20007;-60
2022/04/18 04:24:17;;;;;;;;;;;2.30;99.90;;;;;;5075250;28;19931;-60
2022/04/18 04:26:44;;;;;;;;;;;2.40;99.90;;;;;;5076874;28;19947;-59
2022/04/18 04:29:12;;;;;;;;;;;2.40;99.90;;;;;;5077094;28;19931;-59
2022/04/18 04:31:57;;;;;;;;;;;2.50;99.90;;;;;;5078563;28;20396;-60
2022/04/18 04:34:25;;;;;;;;;;;2.40;99.90;;;;;;5077428;28;19927;-59
2022/04/18 04:37:17;;;;;;;;;;;2.60;99.90;;;;;;5094595;28;20298;-59
2022/04/18 04:39:46;;;;;;;;;;;2.50;99.90;;;;;;5078686;28;19928;-59
2022/04/18 04:42:12;;;;;;;;;;;2.50;99.90;;;;;;5094449;28;19977;-59
2022/04/18 04:44:40;;;;;;;;;;;2.50;99.90;;;;;;5094385;28;20397;-59
2022/04/18 04:47:11;;;;;;;;;;;2.60;99.90;;;;;;5095527;28;19966;-59
2022/04/18 04:49:37;;;;;;;;;;;2.70;99.90;;;;;;5094428;28;19930;-59
2022/04/18 04:52:15;;;;;;;;;;;2.70;99.90;;;;;;5095377;28;19963;-59
2022/04/18 04:54:42;;;;;;;;;;;2.80;99.90;;;;;;5094677;28;20006;-60
2022/04/18 04:57:11;;;;;;;;;;;2.80;99.90;;;;;;5093724;28;20378;-60
2022/04/18 04:59:57;;;;;;;;;;;2.90;99.90;;;;;;5113594;28;19924;-59
2022/04/18 05:02:24;;;;;;;;;;;2.90;99.90;;;;;;5094061;28;20010;-59
2022/04/18 05:04:51;;;;;;;;;;;3.00;99.90;;;;;;5093849;28;20382;-60
2022/04/18 05:07:17;;;;;;;;;;;3.00;99.90;;;;;;5095440;28;19927;-60
2022/04/18 05:10:03;;;;;;;;;;;3.00;99.90;;;;;;5091172;28;19924;-60
2022/04/18 05:12:32;;;;;;;;;;;3.10;99.90;;;;;;5093368;28;19924;-59
2022/04/18 05:15:00;;;;;;;;;;;3.10;99.90;;;;;;5093716;28;19924;-59
2022/04/18 05:17:32;;;;;;;;;;;3.20;99.90;;;;;;5079582;28;19967;-60
2022/04/18 05:20:09;;;;;;;;;;;3.30;99.90;;;;;;5059017;28;19924;-60
2022/04/18 05:22:38;;;;;;;;;;;3.40;99.90;;;;;;5088916;28;19923;-60
2022/04/18 05:25:06;;;;;;;;;;;3.70;99.90;;;;;;5077717;28;19924;-59
2022/04/18 05:27:37;;;;;;;;;;;3.60;99.90;;;;;;5078128;28;20303;-59
2022/04/18 05:30:09;;;;;;;;;;;3.70;99.90;;;;;;5077988;28;19924;-59
2022/04/18 05:32:36;;;;;;;;;;;3.80;99.90;;;;;;5077398;28;20277;-60
2022/04/18 05:35:07;;;;;;;;;;;3.90;99.90;;;;;;5077998;28;19924;-60
2022/04/18 05:37:33;;;;;;;;;;;3.90;99.90;;;;;;5098940;28;20066;-60
2022/04/18 05:40:22;;;;;;;;;;;4.00;99.90;;;;;;5098225;28;19924;-60
2022/04/18 05:42:51;;;;;;;;;;;4.10;99.90;;;;;;5097811;28;19931;-60
2022/04/18 05:45:18;;;;;;;;;;;4.30;99.90;;;;;;5097985;28;19980;-59
2022/04/18 05:47:47;;;;;;;;;;;4.40;99.90;;;;;;5083425;28;20282;-60
2022/04/18 05:50:13;;;;;;;;;;;4.50;99.90;;;;;;5095652;28;19924;-60
2022/04/18 05:52:51;;;;;;;;;;;4.70;99.90;;;;;;5077605;28;19958;-60
2022/04/18 05:55:38;;;;;;;;;;;4.80;99.90;;;;;;5101338;28;20057;-60
2022/04/18 05:58:15;;;;;;;;;;;4.90;99.90;;;;;;5098278;28;20043;-60
2022/04/18 06:00:41;;;;;;;;;;;5.10;99.90;;;;;;5080421;28;19952;-60
2022/04/18 06:03:06;;;;;;;;;;;5.30;99.90;;;;;;5080740;28;19970;-60
2022/04/18 06:05:32;;;;;;;;;;;5.40;99.90;;;;;;5097337;28;20363;-60
2022/04/18 06:08:08;;;;;;;;;;;5.50;99.90;;;;;;5095481;28;19932;-60
2022/04/18 06:10:40;;;;;;;;;;;5.70;99.90;;;;;;5095370;28;20003;-60
2022/04/18 06:13:29;;;;;;;;;;;5.90;99.90;;;;;;5096413;28;19923;-60
2022/04/18 06:15:56;;;;;;;;;;;6.10;99.90;;;;;;5086546;28;19976;-60
2022/04/18 06:18:23;;;;;;;;;;;6.20;99.90;;;;;;5057064;28;20294;-59
2022/04/18 06:20:49;;;;;;;;;;;6.40;99.90;;;;;;5056854;28;20007;-60
2022/04/18 06:23:16;;;;;;;;;;;6.60;99.90;;;;;;5072062;28;20012;-60
2022/04/18 06:25:43;;;;;;;;;;;6.70;99.90;;;;;;5076622;28;20018;-60
2022/04/18 06:28:09;;;;;;;;;;;6.90;99.90;;;;;;5075753;28;19932;-60
2022/04/18 06:30:41;;;;;;;;;;;7.10;99.90;;;;;;5079998;28;19955;-60
2022/04/18 06:33:39;;;;;;;;;;;7.30;99.90;;;;;;5097217;28;19924;-60
2022/04/18 06:36:07;;;;;;;;;;;7.50;99.90;;;;;;5096533;28;20007;-60
2022/04/18 06:38:38;;;;;;;;;;;7.70;99.90;;;;;;5097512;28;19927;-60
2022/04/18 06:41:09;;;;;;;;;;;7.90;99.90;;;;;;5095474;28;20436;-60
2022/04/18 06:43:36;;;;;;;;;;;8.00;99.90;;;;;;5096743;28;20374;-60
2022/04/18 06:46:07;;;;;;;;;;;8.20;99.90;;;;;;5066277;28;20362;-60
2022/04/18 06:48:33;;;;;;;;;;;8.40;99.90;;;;;;5068834;28;19931;-60
2022/04/18 06:51:17;;;;;;;;;;;8.70;99.90;;;;;;5098551;28;19928;-60
2022/04/18 06:54:21;;;;;;;;;;;8.90;99.90;;;;;;5084721;28;19924;-60
2022/04/18 06:57:00;;;;;;;;;;;9.10;99.90;;;;;;5079149;28;20290;-60
2022/04/18 06:59:38;;;;;;;;;;;9.30;99.90;;;;;;5073241;28;19935;-60
2022/04/18 07:02:05;;;;;;;;;;;9.50;99.90;;;;;;5055968;28;19924;-60
2022/04/18 07:04:32;;;;;;;;;;;9.70;99.90;;;;;;5059208;28;20285;-60
2022/04/18 07:06:58;;;;;;;;;;;9.90;99.90;;;;;;5075912;28;19928;-60
2022/04/18 07:09:23;;;;;;;;;;;10.10;99.90;;;;;;5076010;28;19985;-60
2022/04/18 07:11:53;;;;;;;;;;;10.30;99.90;;;;;;5097725;28;19980;-60
2022/04/18 07:14:22;;;;;;;;;;;10.40;99.90;;;;;;5096456;28;19977;-60
2022/04/18 07:16:53;;;;;;;;;;;10.60;99.90;;;;;;5075755;28;19924;-60
2022/04/18 07:19:23;;;;;;;;;;;10.80;99.90;;;;;;5093702;28;19924;-60
2022/04/18 07:21:50;;;;;;;;;;;11.00;99.90;;;;;;5087022;28;20670;-60
2022/04/18 07:24:17;;;;;;;;;;;11.10;99.90;;;;;;5082178;28;19969;-60
2022/04/18 07:26:45;;;;;;;;;;;11.20;99.90;;;;;;5094094;28;19923;-60
2022/04/18 07:29:10;;;;;;;;;;;11.40;99.90;;;;;;5093721;28;19928;-60
2022/04/18 07:31:39;;;;;;;;;;;11.50;99.90;;;;;;5075088;28;19923;-62
2022/04/18 07:34:05;;;;;;;;;;;11.70;99.90;;;;;;5090484;28;20061;-61
2022/04/18 07:36:31;;;;;;;;;;;11.80;99.90;;;;;;5113568;28;20010;-61
2022/04/18 07:38:57;;;;;;;;;;;12.00;99.90;;;;;;5100076;28;19927;-62
2022/04/18 07:41:28;;;;;;;;;;;12.20;99.90;;;;;;5076889;28;20396;-62
2022/04/18 07:43:57;;;;;;;;;;;;;;;;;;5076850;28;19923;-62
2022/04/18 07:46:23;;;;;;;;;;;12.40;99.90;;;;;;5055402;28;19932;-60
2022/04/18 07:48:50;;;;;;;;;;;12.50;99.90;;;;;;5067307;28;19959;-60
2022/04/18 07:51:34;;;;;;;;;;;12.60;99.50;;;;;;5085705;28;20036;-60
2022/04/18 07:54:01;;;;;;;;;;;12.90;99.90;;;;;;5095814;28;20346;-60
2022/04/18 07:56:27;;;;;;;;;;;12.90;99.90;;;;;;5102935;28;19928;-60
2022/04/18 07:58:54;;;;;;;;;;;13.10;99.80;;;;;;5101347;28;19977;-60
2022/04/18 08:01:26;;;;;;;;;;;13.20;99.40;;;;;;5078227;28;19924;-59
2022/04/18 08:03:54;;;;;;;;;;;13.30;98.70;;;;;;5082774;28;19928;-59
2022/04/18 08:06:21;;;;;;;;;;;13.60;98.50;;;;;;5057326;28;20385;-59
2022/04/18 08:08:55;;;;;;;;;;;13.70;98.30;;;;;;5079727;28;19924;-60
2022/04/18 08:11:21;;;;;;;;;;;13.90;98.00;;;;;;5078355;28;19970;-60
2022/04/18 08:13:50;;;;;;;;;;;14.00;97.50;;;;;;5094802;28;19959;-60
2022/04/18 08:16:40;;;;;;;;;;;14.20;97.10;;;;;;5078843;28;19936;-60
2022/04/18 08:19:18;;;;;;;;;;;14.30;96.60;;;;;;5075394;28;19935;-60
2022/04/18 08:21:43;;;;;;;;;;;14.40;93.60;;;;;;5055973;28;20294;-60
2022/04/18 08:24:09;;;;;;;;;;;14.50;92.60;;;;;;5092187;28;19920;-60
2022/04/18 08:27:08;;;;;;;;;;;14.60;93.50;;;;;;5107333;28;19928;-60
2022/04/18 08:29:42;;;;;;;;;;;14.80;93.50;;;;;;5078725;28;19931;-60
2022/04/18 08:32:16;;;;;;;;;;;14.90;93.10;;;;;;5095117;28;19924;-60
2022/04/18 08:34:41;;;;;;;;;;;15.10;93.20;;;;;;5089793;28;19924;-60
2022/04/18 08:37:11;;;;;;;;;;;15.30;92.60;;;;;;5075071;28;20487;-60
2022/04/18 08:39:58;;;;;;;;;;;15.40;92.50;;;;;;5092873;28;20666;-60
2022/04/18 08:42:25;;;;;;;;;;;15.60;87.40;;;;;;5074376;28;19924;-60
2022/04/18 08:44:51;;;;;;;;;;;15.60;86.30;;;;;;5089760;28;19924;-60
2022/04/18 08:52:54;;;;;;;;;;;16.00;87.90;;;;;;5097978;28;19928;-60
2022/04/18 08:55:34;;;;;;;;;;;16.20;87.00;;;;;;5109487;28;19924;-60
2022/04/18 08:58:14;;;;;;;;;;;16.40;85.60;;;;;;5085452;28;19925;-60
2022/04/18 09:00:40;;;;;;;;;;;16.50;83.50;;;;;;5083918;28;19928;-60
2022/04/18 09:03:32;;;;;;;;;;;16.70;82.90;;;;;;5099791;28;20057;-60
2022/04/18 09:06:04;;;;;;;;;;;16.80;81.20;;;;;;5099241;28;20425;-60
2022/04/18 09:08:33;;;;;;;;;;;16.90;80.00;;;;;;5094325;28;19970;-60
2022/04/18 09:10:58;;;;;;;;;;;17.10;80.70;;;;;;5089004;28;20377;-60
2022/04/18 09:13:24;;;;;;;;;;;17.30;80.70;;;;;;5099449;28;19927;-60
2022/04/18 09:15:54;;;;;;;;;;;17.40;79.60;;;;;;5087230;28;19928;-61
2022/04/18 09:18:21;;;;;;;;;;;17.60;78.40;;;;;;5058479;28;19925;-61
2022/04/18 09:20:51;;;;;;;;;;;17.40;66.90;;;;;;5098321;28;19924;-60
2022/04/18 09:23:18;;;;;;;;;;;17.00;57.30;;;;;;5082219;28;19928;-60
2022/04/18 09:25:44;;;;;;;;;;;16.60;58.30;;;;;;5078772;28;19924;-60
2022/04/18 09:28:10;;;;;;;;;;;16.50;64.30;;;;;;5075910;28;20019;-60
2022/04/18 09:30:37;;;;;;;;;;;16.50;58.30;;;;;;5076954;28;19928;-60
2022/04/18 09:33:06;;;;;;;;;;;16.70;65.60;;;;;;5078330;28;20014;-60
2022/04/18 09:35:38;;;;;;;;;;;17.00;66.60;;;;;;5078394;28;19951;-60
2022/04/18 09:38:06;;;;;;;;;;;17.40;65.90;;;;;;5075967;28;20702;-61
2022/04/18 09:40:53;;;;;;;;;;;17.70;62.50;;;;;;5116588;28;19946;-60
2022/04/18 09:43:23;;;;;;;;;;;18.00;63.70;;;;;;5098577;28;19974;-60
2022/04/18 09:45:51;;;;;;;;;;;18.20;62.80;;;;;;5114382;28;19923;-61
2022/04/18 09:48:21;;;;;;;;;;;18.40;62.10;;;;;;5098587;28;19963;-60
2022/04/18 09:51:01;;;;;;;;;;;18.60;63.30;;;;;;5098408;28;19930;-61
2022/04/18 09:53:36;;;;;;;;;;;18.80;62.40;;;;;;5080716;28;19931;-61
2022/04/18 09:56:02;;;;;;;;;;;19.00;62.10;;;;;;5115451;28;20358;-61
2022/04/18 09:58:30;;;;;;;;;;;19.20;62.40;;;;;;5115681;28;20022;-61
2022/04/18 10:00:56;;;;;;;;;;;19.50;62.60;;;;;;5097572;28;19924;-60
2022/04/18 10:03:22;;;;;;;;;;;19.60;59.60;;;;;;5114655;28;19935;-61
2022/04/18 10:05:48;;;;;;;;;;;19.80;60.20;;;;;;5115550;28;19951;-61
2022/04/18 10:08:14;;;;;;;;;;;20.00;62.20;;;;;;5113780;28;19954;-61
2022/04/18 10:10:40;;;;;;;;;;;19.70;54.40;;;;;;5094379;28;19924;-61
2022/04/18 10:13:06;;;;;;;;;;;19.80;58.20;;;;;;5107693;28;19951;-61
2022/04/18 10:15:33;;;;;;;;;;;19.90;59.30;;;;;;5111418;28;19947;-61
2022/04/18 10:18:01;;;;;;;;;;;20.30;58.70;;;;;;5095560;28;19924;-61
2022/04/18 10:20:41;;;;;;;;;;;20.80;58.50;;;;;;5094941;28;19946;-61
2022/04/18 10:23:19;;;;;;;;;;;21.30;55.30;;;;;;5101258;28;20279;-61
2022/04/18 10:25:56;;;;;;;;;;;22.00;54.40;;;;;;5095668;28;20155;-61
2022/04/18 10:28:24;;;;;;;;;;;22.50;50.60;;;;;;5094791;28;20402;-61
2022/04/18 10:30:53;;;;;;;;;;;23.10;49.60;;;;;;5089783;28;19990;-61
2022/04/18 10:33:19;;;;;;;;;;;23.60;48.30;;;;;;5115197;28;19969;-61
2022/04/18 10:35:45;;;;;;;;;;;24.20;46.30;;;;;;5115257;28;19927;-61
2022/04/18 10:38:11;;;;;;;;;;;24.70;44.40;;;;;;5114569;28;19924;-61
2022/04/18 10:40:38;;;;;;;;;;;25.10;44.40;;;;;;5114957;28;20011;-61
2022/04/18 10:43:06;;;;;;;;;;;25.50;42.60;;;;;;5097108;28;19924;-61
2022/04/18 10:45:34;;;;;;;;;;;25.80;41.50;;;;;;5115213;28;19924;-61
2022/04/18 10:48:03;;;;;;;;;;;25.70;39.00;;;;;;5104980;28;19930;-61
2022/04/18 10:50:36;;;;;;;;;;;25.90;39.20;;;;;;5076790;28;19971;-61
2022/04/18 10:53:08;;;;;;;;;;;26.10;39.20;;;;;;5094694;28;20329;-61
2022/04/18 10:55:35;;;;;;;;;;;26.30;38.10;;;;;;5095785;28;19924;-61
2022/04/18 10:58:08;;;;;;;;;;;26.40;36.70;;;;;;5103016;28;20405;-61
2022/04/18 11:00:44;;;;;;;;;;;26.70;39.00;;;;;;5095557;28;19924;-61
2022/04/18 11:03:10;;;;;;;;;;;27.00;37.70;;;;;;5093996;28;19978;-62
2022/04/18 11:05:38;;;;;;;;;;;27.30;37.00;;;;;;5102506;28;19923;-62
2022/04/18 11:08:21;;;;;;;;;;;27.70;36.50;;;;;;5113854;28;19924;-61
2022/04/18 11:10:47;;;;;;;;;;;27.90;36.80;;;;;;5094412;28;20382;-61
2022/04/18 11:13:13;;;;;;;;;;;28.30;35.80;;;;;;5094605;28;19924;-62
2022/04/18 11:15:38;;;;;;;;;;;28.30;35.60;;;;;;5087639;28;19924;-62
2022/04/18 11:18:07;;;;;;;;;;;28.60;36.00;;;;;;5056001;28;20350;-62
2022/04/18 11:20:35;;;;;;;;;;;29.00;35.80;;;;;;5091112;28;20393;-62
2022/04/18 11:23:14;;;;;;;;;;;29.20;35.40;;;;;;5074982;28;20094;-62
2022/04/18 11:25:55;;;;;;;;;;;29.60;34.80;;;;;;5099906;28;20020;-62
2022/04/18 11:28:21;;;;;;;;;;;28.90;33.60;;;;;;5090298;28;20385;-62
2022/04/18 11:30:47;;;;;;;;;;;28.80;34.10;;;;;;5101322;28;19924;-62
2022/04/18 11:33:12;;;;;;;;;;;28.90;34.40;;;;;;5079975;28;19931;-61
2022/04/18 11:35:38;;;;;;;;;;;29.00;34.70;;;;;;5094432;28;19924;-62
2022/04/18 11:38:07;;;;;;;;;;;29.50;35.10;;;;;;5092681;28;19924;-62
2022/04/18 11:40:40;;;;;;;;;;;30.00;33.50;;;;;;5097916;28;20018;-62
2022/04/18 11:43:11;;;;;;;;;;;29.70;32.70;;;;;;5114036;28;20438;-62
2022/04/18 11:45:37;;;;;;;;;;;29.60;33.50;;;;;;5113306;28;19924;-62
2022/04/18 11:48:04;;;;;;;;;;;29.70;33.10;;;;;;5114287;28;19924;-62
2022/04/18 11:50:30;;;;;;;;;;;29.80;34.40;;;;;;5112829;28;19930;-62
2022/04/18 11:53:14;;;;;;;;;;;30.50;33.80;;;;;;5113414;28;19923;-62
2022/04/18 11:55:41;;;;;;;;;;;31.10;34.00;;;;;;5114269;28;19930;-62
2022/04/18 11:58:08;;;;;;;;;;;32.00;42.00;;;;;;5109583;28;19970;-62
2022/04/18 12:08:47;;;;;;;;;;;32.30;58.90;;;;;;5098642;28;19931;-62
2022/04/18 12:11:13;;;;;;;;;;;32.90;55.30;;;;;;5093397;28;19924;-62
2022/04/18 12:13:40;;;;;;;;;;;31.90;52.60;;;;;;5100939;28;20065;-62
2022/04/18 12:16:06;;;;;;;;;;;31.70;45.90;;;;;;5109617;28;20436;-62
2022/04/18 12:18:32;;;;;;;;;;;31.40;56.70;;;;;;5113741;28;19974;-62
2022/04/18 12:20:57;;;;;;;;;;;31.40;53.50;;;;;;5112911;28;19924;-62
2022/04/18 12:23:24;;;;;;;;;;;31.30;52.90;;;;;;5097551;28;20282;-62
2022/04/18 12:25:51;;;;;;;;;;;31.70;53.70;;;;;;5091681;28;19924;-62
2022/04/18 12:28:19;;;;;;;;;;;31.30;47.60;;;;;;5092846;28;19924;-62
2022/04/18 12:30:45;;;;;;;;;;;31.80;50.00;;;;;;5075136;28;20010;-62
2022/04/18 12:33:13;;;;;;;;;;;32.40;49.00;;;;;;5057441;28;19920;-62
2022/04/18 12:35:39;;;;;;;;;;;32.80;47.40;;;;;;5095192;28;19939;-62
2022/04/18 12:38:06;;;;;;;;;;;33.40;46.30;;;;;;5095182;28;19924;-62
2022/04/18 12:40:34;;;;;;;;;;;33.90;29.60;;;;;;5112744;28;20382;-62
2022/04/18 12:43:05;;;;;;;;;;;33.90;30.00;;;;;;5103533;28;19928;-62
2022/04/18 12:45:40;;;;;;;;;;;34.10;29.60;;;;;;5094032;28;19983;-62
2022/04/18 12:48:06;;;;;;;;;;;34.30;29.90;;;;;;5095740;28;19924;-62
2022/04/18 12:50:33;;;;;;;;;;;34.40;29.70;;;;;;5092684;28;19935;-62
2022/04/18 12:52:59;;;;;;;;;;;33.30;28.30;;;;;;5109925;28;19924;-62
2022/04/18 12:55:26;;;;;;;;;;;33.30;29.60;;;;;;5112377;28;20346;-62
2022/04/18 12:57:51;;;;;;;;;;;33.50;30.00;;;;;;5112869;28;19934;-62
2022/04/18 13:00:17;;;;;;;;;;;33.90;30.20;;;;;;5113037;28;19928;-63
2022/04/18 13:03:01;;;;;;;;;;;34.10;30.00;;;;;;5112515;28;19927;-63
2022/04/18 13:05:27;;;;;;;;;;;34.30;29.40;;;;;;5113039;28;19931;-62
2022/04/18 13:07:56;;;;;;;;;;;34.50;29.30;;;;;;5112438;28;19967;-62
2022/04/18 13:10:27;;;;;;;;;;;34.20;29.20;;;;;;5108228;28;19976;-62
2022/04/18 13:13:07;;;;;;;;;;;34.10;29.30;;;;;;5112896;28;19992;-63
2022/04/18 13:15:33;;;;;;;;;;;34.20;29.80;;;;;;5107955;28;19924;-63
2022/04/18 13:18:03;;;;;;;;;;;34.20;30.00;;;;;;5091790;28;19947;-63
2022/04/18 13:20:29;;;;;;;;;;;34.30;29.00;;;;;;5090979;28;19928;-62
2022/04/18 13:22:55;;;;;;;;;;;34.10;29.80;;;;;;5071248;28;20337;-63
2022/04/18 13:25:21;;;;;;;;;;;34.00;29.90;;;;;;5092911;28;19931;-63
2022/04/18 13:27:47;;;;;;;;;;;34.00;30.40;;;;;;5105161;28;19924;-63
2022/04/18 13:30:13;;;;;;;;;;;33.80;30.00;;;;;;5076899;28;19924;-63
2022/04/18 13:32:39;;;;;;;;;;;33.80;30.50;;;;;;5054128;28;19924;-63
2022/04/18 13:35:04;;;;;;;;;;;33.50;28.90;;;;;;5072281;28;19930;-63
2022/04/18 13:37:30;;;;;;;;;;;33.00;29.40;;;;;;5074010;28;20011;-63
2022/04/18 13:39:56;;;;;;;;;;;33.00;30.40;;;;;;5058077;28;20006;-63
2022/04/18 13:42:21;;;;;;;;;;;33.10;31.00;;;;;;5075380;28;20019;-63
2022/04/18 13:44:47;;;;;;;;;;;33.00;31.30;;;;;;5089794;28;19973;-63
2022/04/18 13:47:13;;;;;;;;;;;33.10;31.50;;;;;;5098237;28;20010;-63
2022/04/18 13:49:40;;;;;;;;;;;32.60;29.20;;;;;;5097731;28;19923;-63
2022/04/18 13:52:12;;;;;;;;;;;31.80;30.80;;;;;;5115938;28;19923;-63
2022/04/18 13:54:38;;;;;;;;;;;31.70;31.90;;;;;;5115760;28;19928;-63
2022/04/18 13:57:05;;;;;;;;;;;32.10;32.30;;;;;;5115143;28;19935;-63
2022/04/18 13:59:31;;;;;;;;;;;32.10;30.60;;;;;;5116514;28;19924;-63
2022/04/18 14:01:57;;;;;;;;;;;31.80;29.20;;;;;;5112655;28;20011;-63
2022/04/18 14:04:23;;;;;;;;;;;31.80;27.40;;;;;;5094796;28;20365;-63
2022/04/18 14:06:49;;;;;;;;;;;32.00;29.90;;;;;;5096021;28;20305;-63
2022/04/18 14:09:14;;;;;;;;;;;32.50;30.20;;;;;;5095693;28;19927;-63
2022/04/18 14:11:40;;;;;;;;;;;33.00;28.60;;;;;;5086042;28;19924;-63
2022/04/18 14:14:06;;;;;;;;;;;33.40;30.50;;;;;;5116435;28;19924;-63
2022/04/18 14:20:20;;;;;;;;;;;34.10;27.30;;;;;;5094301;28;19928;-64
2022/04/18 14:22:01;;;;;;;;;;;34.00;29.60;;;;;;5076881;28;19924;-63
2022/04/18 14:24:27;;;;;;;;;;;34.10;30.10;;;;;;5095469;28;19943;-63
2022/04/18 14:26:53;;;;;;;;;;;34.50;31.00;;;;;;5093969;28;20301;-64
2022/04/18 14:29:18;;;;;;;;;;;34.80;28.60;;;;;;5104672;28;19924;-64
2022/04/18 14:31:44;;;;;;;;;;;34.70;29.90;;;;;;5115531;28;19920;-63
2022/04/18 14:34:10;;;;;;;;;;;34.60;29.10;;;;;;5114618;28;19975;-63
2022/04/18 14:36:35;;;;;;;;;;;35.00;30.10;;;;;;5115619;28;19930;-63
2022/04/18 14:39:02;;;;;;;;;;;35.00;29.60;;;;;;5097560;28;20278;-63
2022/04/18 14:41:27;;;;;;;;;;;35.20;29.60;;;;;;5094103;28;19936;-63
2022/04/18 14:43:53;;;;;;;;;;;35.10;29.80;;;;;;5094971;28;19920;-63
2022/04/18 14:46:19;;;;;;;;;;;35.30;30.00;;;;;;5079545;28;19930;-63
2022/04/18 14:48:44;;;;;;;;;;;35.30;29.50;;;;;;5114411;28;19969;-63
2022/04/18 14:51:10;;;;;;;;;;;35.60;29.70;;;;;;5115536;28;19919;-64
2022/04/18 14:53:36;;;;;;;;;;;35.90;30.20;;;;;;5114475;28;19924;-64
2022/04/18 14:56:03;;;;;;;;;;;36.20;30.10;;;;;;5113869;28;19973;-63
2022/04/18 14:58:28;;;;;;;;;;;36.30;30.30;;;;;;5096665;28;20010;-64
2022/04/18 15:00:54;;;;;;;;;;;36.30;29.50;;;;;;5114813;28;20359;-64